Time;durP1;ratioP1;P1;durP2;ratioP2;P2;SDS_P1;SDS_P2;PMS_P1;PMS_P2;Temp;Humidity;BMP_temperature;BMP_pressure;BME280_temperature;BME280_humidity;BME280_pressure;Samples;Min_cycle;Max_cycle;Signal;HPM_P1;HPM_P2
2023/08/28 00:01:04;;;;;;;;;;;;;;;;;;5056767;28;19982;-70
2023/08/28 00:03:31;;;;;;;;;;;;;;;;;;5055351;28;19924;-69
2023/08/28 00:05:58;;;;;;;;;;;;;;;;;;5060549;28;20586;-70
2023/08/28 00:08:25;;;;;;;;;;;;;;;;;;5056300;28;19939;-69
2023/08/28 00:10:52;;;;;;;;;;;;;;;;;;5060893;28;20392;-70
2023/08/28 00:13:19;;;;;;;;;;;;;;;;;;5057500;28;19929;-69
2023/08/28 00:15:49;;;;;;;;;;;;;;;;;;5070476;28;20697;-69
2023/08/28 00:18:16;;;;;;;;;;;;;;;;;;5070118;28;20349;-69
2023/08/28 00:20:43;;;;;;;;;;;;;;;;;;5052916;28;20021;-69
2023/08/28 00:23:10;;;;;;;;;;;;;;;;;;5064607;28;19972;-69
2023/08/28 00:25:37;;;;;;;;;;;;;;;;;;5071511;28;19924;-69
2023/08/28 00:28:04;;;;;;;;;;;;;;;;;;5060338;28;19932;-69
2023/08/28 00:30:31;;;;;;;;;;;;;;;;;;5070913;28;19925;-69
2023/08/28 00:32:58;;;;;;;;;;;;;;;;;;5066046;28;19968;-70
2023/08/28 00:35:25;;;;;;;;;;;;;;;;;;5054086;28;19948;-69
2023/08/28 00:37:52;;;;;;;;;;;;;;;;;;5052869;28;19924;-69
2023/08/28 00:40:19;;;;;;;;;;;;;;;;;;5069258;28;20338;-69
2023/08/28 00:42:46;;;;;;;;;;;;;;;;;;5057527;28;20016;-69
2023/08/28 00:45:13;;;;;;;;;;;;;;;;;;5063969;28;19924;-69
2023/08/28 00:47:40;;;;;;;;;;;;;;;;;;5066041;28;19968;-69
2023/08/28 00:50:07;;;;;;;;;;;;;;;;;;5070699;28;19972;-69
2023/08/28 00:52:34;;;;;;;;;;;;;;;;;;5072131;28;19928;-69
2023/08/28 00:55:03;;;;;;;;;;;;;;;;;;5068655;28;20336;-69
2023/08/28 00:57:31;;;;;;;;;;;;;;;;;;5068118;28;19994;-70
2023/08/28 00:59:58;;;;;;;;;;;;;;;;;;5069774;28;19968;-69
2023/08/28 01:02:25;;;;;;;;;;;;;;;;;;5072479;28;19924;-69
2023/08/28 01:04:52;;;;;;;;;;;;;;;;;;5070833;28;19928;-69
2023/08/28 01:07:19;;;;;;;;;;;;;;;;;;5069902;28;19978;-69
2023/08/28 01:09:46;;;;;;;;;;;;;;;;;;5067349;28;20404;-69
2023/08/28 01:12:13;;;;;;;;;;;;;;;;;;5071437;28;19924;-69
2023/08/28 01:14:40;;;;;;;;;;;;;;;;;;5070950;28;19929;-69
2023/08/28 01:17:07;;;;;;;;;;;;;;;;;;5070031;28;19981;-69
2023/08/28 01:19:34;;;;;;;;;;;;;;;;;;5058142;28;19998;-70
2023/08/28 01:22:01;;;;;;;;;;;;;;;;;;5071474;28;19986;-69
2023/08/28 01:24:28;;;;;;;;;;;;;;;;;;5069740;28;19968;-70
2023/08/28 01:26:55;;;;;;;;;;;;;;;;;;5068109;28;19929;-70
2023/08/28 01:29:22;;;;;;;;;;;;;;;;;;5067328;28;20423;-71
2023/08/28 01:31:49;;;;;;;;;;;;;;;;;;5086450;28;19924;-71
2023/08/28 01:34:15;;;;;;;;;;;;;;;;;;5068914;28;19924;-70
2023/08/28 01:36:43;;;;;;;;;;;;;;;;;;5070008;28;19931;-70
2023/08/28 01:39:10;;;;;;;;;;;;;;;;;;5067394;28;19933;-70
2023/08/28 01:41:37;;;;;;;;;;;;;;;;;;5071501;28;20350;-71
2023/08/28 01:44:04;;;;;;;;;;;;;;;;;;5068395;28;19928;-71
2023/08/28 01:46:33;;;;;;;;;;;;;;;;;;5071686;28;19986;-71
2023/08/28 01:49:00;;;;;;;;;;;;;;;;;;5068697;28;20005;-71
2023/08/28 01:51:28;;;;;;;;;;;;;;;;;;5071526;28;19928;-71
2023/08/28 01:53:55;;;;;;;;;;;;;;;;;;5074632;28;19929;-71
2023/08/28 01:56:22;;;;;;;;;;;;;;;;;;5076024;28;19985;-70
2023/08/28 01:58:49;;;;;;;;;;;;;;;;;;5072905;28;19924;-70
2023/08/28 02:01:16;;;;;;;;;;;;;;;;;;5061847;28;19925;-70
2023/08/28 02:03:43;;;;;;;;;;;;;;;;;;5072076;28;19932;-70
2023/08/28 02:06:10;;;;;;;;;;;;;;;;;;5074936;28;19931;-70
2023/08/28 02:08:37;;;;;;;;;;;;;;;;;;5073825;28;20379;-70
2023/08/28 02:11:04;;;;;;;;;;;;;;;;;;5068811;28;19925;-71
2023/08/28 02:13:31;;;;;;;;;;;;;;;;;;5072384;28;19963;-70
2023/08/28 02:15:58;;;;;;;;;;;;;;;;;;5073916;28;20079;-70
2023/08/28 02:18:25;;;;;;;;;;;;;;;;;;5068019;28;19978;-69
2023/08/28 02:20:52;;;;;;;;;;;;;;;;;;5072714;28;20018;-69
2023/08/28 02:23:20;;;;;;;;;;;;;;;;;;5073689;28;19978;-70
2023/08/28 02:25:47;;;;;;;;;;;;;;;;;;5073802;28;20300;-70
2023/08/28 02:28:13;;;;;;;;;;;;;;;;;;5072956;28;19925;-70
2023/08/28 02:30:41;;;;;;;;;;;;;;;;;;5068197;28;19986;-72
2023/08/28 02:33:08;;;;;;;;;;;;;;;;;;5072562;28;19925;-70
2023/08/28 02:35:35;;;;;;;;;;;;;;;;;;5070110;28;19978;-70
2023/08/28 02:38:02;;;;;;;;;;;;;;;;;;5073204;28;19978;-70
2023/08/28 02:40:29;;;;;;;;;;;;;;;;;;5075004;28;19924;-71
2023/08/28 02:42:57;;;;;;;;;;;;;;;;;;5074638;28;20379;-70
2023/08/28 02:45:24;;;;;;;;;;;;;;;;;;5075388;28;20401;-69
2023/08/28 02:47:51;;;;;;;;;;;;;;;;;;5073904;28;20030;-70
2023/08/28 02:50:18;;;;;;;;;;;;;;;;;;5075344;28;20047;-70
2023/08/28 02:52:45;;;;;;;;;;;;;;;;;;5067927;28;19975;-69
2023/08/28 02:55:12;;;;;;;;;;;;;;;;;;5072939;28;20445;-70
2023/08/28 02:57:39;;;;;;;;;;;;;;;;;;5074051;28;19928;-70
2023/08/28 03:00:06;;;;;;;;;;;;;;;;;;5072525;28;19951;-70
2023/08/28 03:02:33;;;;;;;;;;;;;;;;;;5073246;28;19924;-69
2023/08/28 03:05:00;;;;;;;;;;;;;;;;;;5072079;28;19925;-69
2023/08/28 03:07:27;;;;;;;;;;;;;;;;;;5072191;28;19951;-69
2023/08/28 03:09:54;;;;;;;;;;;;;;;;;;5072946;28;19924;-69
2023/08/28 03:12:21;;;;;;;;;;;;;;;;;;5068436;28;19925;-69
2023/08/28 03:14:48;;;;;;;;;;;;;;;;;;5071826;28;19925;-69
2023/08/28 03:17:15;;;;;;;;;;;;;;;;;;5072271;28;19924;-69
2023/08/28 03:19:42;;;;;;;;;;;;;;;;;;5071640;28;20322;-69
2023/08/28 03:22:09;;;;;;;;;;;;;;;;;;5071036;28;19925;-69
2023/08/28 03:24:36;;;;;;;;;;;;;;;;;;5072417;28;20429;-69
2023/08/28 03:27:03;;;;;;;;;;;;;;;;;;5070006;28;19924;-69
2023/08/28 03:29:30;;;;;;;;;;;;;;;;;;5067456;28;19924;-69
2023/08/28 03:31:57;;;;;;;;;;;;;;;;;;5073266;28;19993;-69
2023/08/28 03:34:25;;;;;;;;;;;;;;;;;;5072440;28;20029;-69
2023/08/28 03:36:52;;;;;;;;;;;;;;;;;;5072901;28;20284;-69
2023/08/28 03:39:19;;;;;;;;;;;;;;;;;;5068531;28;19970;-70
2023/08/28 03:41:46;;;;;;;;;;;;;;;;;;5067018;28;19939;-70
2023/08/28 03:44:13;;;;;;;;;;;;;;;;;;5070927;28;19925;-69
2023/08/28 03:46:40;;;;;;;;;;;;;;;;;;5071447;28;19955;-70
2023/08/28 03:49:07;;;;;;;;;;;;;;;;;;5067537;28;19928;-69
2023/08/28 03:51:34;;;;;;;;;;;;;;;;;;5068779;28;19928;-69
2023/08/28 03:54:01;;;;;;;;;;;;;;;;;;5053543;28;19925;-69
2023/08/28 03:56:29;;;;;;;;;;;;;;;;;;5068276;28;19981;-69
2023/08/28 03:58:56;;;;;;;;;;;;;;;;;;5072669;28;19964;-69
2023/08/28 04:01:24;;;;;;;;;;;;;;;;;;5070878;28;20014;-69
2023/08/28 04:03:51;;;;;;;;;;;;;;;;;;5071415;28;20011;-69
2023/08/28 04:06:18;;;;;;;;;;;;;;;;;;5073230;28;20010;-69
2023/08/28 04:08:45;;;;;;;;;;;;;;;;;;5072921;28;19973;-69
2023/08/28 04:11:12;;;;;;;;;;;;;;;;;;5072029;28;19982;-69
2023/08/28 04:13:39;;;;;;;;;;;;;;;;;;5070930;28;20379;-69
2023/08/28 04:16:06;;;;;;;;;;;;;;;;;;5072332;28;19924;-69
2023/08/28 04:18:33;;;;;;;;;;;;;;;;;;5070939;28;19982;-69
2023/08/28 04:21:00;;;;;;;;;;;;;;;;;;5070763;28;19970;-71
2023/08/28 04:23:27;;;;;;;;;;;;;;;;;;5071628;28;19924;-70
2023/08/28 04:25:54;;;;;;;;;;;;;;;;;;5070740;28;19924;-69
2023/08/28 04:28:21;;;;;;;;;;;;;;;;;;5070659;28;19978;-69
2023/08/28 04:30:48;;;;;;;;;;;;;;;;;;5068526;28;19968;-69
2023/08/28 04:33:15;;;;;;;;;;;;;;;;;;5066778;28;19982;-67
2023/08/28 04:35:42;;;;;;;;;;;;;;;;;;5067018;28;19974;-67
2023/08/28 04:38:09;;;;;;;;;;;;;;;;;;5072030;28;19925;-67
2023/08/28 04:40:36;;;;;;;;;;;;;;;;;;5071897;28;19986;-69
2023/08/28 04:43:03;;;;;;;;;;;;;;;;;;5071224;28;19959;-66
2023/08/28 04:45:30;;;;;;;;;;;;;;;;;;5061453;28;20588;-68
2023/08/28 04:47:57;;;;;;;;;;;;;;;;;;5069509;28;19982;-67
2023/08/28 04:50:24;;;;;;;;;;;;;;;;;;5064002;28;19931;-67
2023/08/28 04:52:51;;;;;;;;;;;;;;;;;;5070019;28;19925;-68
2023/08/28 04:55:18;;;;;;;;;;;;;;;;;;5070285;28;19994;-67
2023/08/28 04:57:45;;;;;;;;;;;;;;;;;;5071620;28;19974;-67
2023/08/28 05:00:12;;;;;;;;;;;;;;;;;;5067153;28;20454;-67
2023/08/28 05:02:39;;;;;;;;;;;;;;;;;;5070250;28;19978;-68
2023/08/28 05:05:06;;;;;;;;;;;;;;;;;;5070127;28;19925;-67
2023/08/28 05:07:33;;;;;;;;;;;;;;;;;;5071821;28;19931;-67
2023/08/28 05:10:00;;;;;;;;;;;;;;;;;;5063847;28;20240;-68
2023/08/28 05:12:27;;;;;;;;;;;;;;;;;;5067013;28;19978;-67
2023/08/28 05:14:54;;;;;;;;;;;;;;;;;;5068954;28;19925;-67
2023/08/28 05:17:21;;;;;;;;;;;;;;;;;;5070777;28;19924;-68
2023/08/28 05:19:48;;;;;;;;;;;;;;;;;;5064642;28;19970;-68
2023/08/28 05:22:15;;;;;;;;;;;;;;;;;;5069281;28;19929;-68
2023/08/28 05:24:42;;;;;;;;;;;;;;;;;;5066084;28;19936;-67
2023/08/28 05:27:09;;;;;;;;;;;;;;;;;;5072744;28;19924;-68
2023/08/28 05:29:36;;;;;;;;;;;;;;;;;;5074299;28;19924;-67
2023/08/28 05:32:03;;;;;;;;;;;;;;;;;;5072935;28;19931;-68
2023/08/28 05:34:32;;;;;;;;;;;;;;;;;;5073374;28;20023;-69
2023/08/28 05:36:59;;;;;;;;;;;;;;;;;;5074128;28;19951;-68
2023/08/28 05:39:26;;;;;;;;;;;;;;;;;;5068917;28;19960;-67
2023/08/28 05:41:53;;;;;;;;;;;;;;;;;;5075724;28;19947;-67
2023/08/28 05:44:20;;;;;;;;;;;;;;;;;;5072840;28;19940;-68
2023/08/28 05:46:47;;;;;;;;;;;;;;;;;;5072806;28;19925;-68
2023/08/28 05:49:14;;;;;;;;;;;;;;;;;;5071205;28;19925;-68
2023/08/28 05:51:41;;;;;;;;;;;;;;;;;;5067852;28;19979;-68
2023/08/28 05:54:08;;;;;;;;;;;;;;;;;;5073070;28;19964;-68
2023/08/28 05:56:35;;;;;;;;;;;;;;;;;;5073051;28;19933;-67
2023/08/28 05:59:02;;;;;;;;;;;;;;;;;;5072575;28;19975;-67
2023/08/28 06:01:29;;;;;;;;;;;;;;;;;;5074851;28;19924;-67
2023/08/28 06:03:56;;;;;;;;;;;;;;;;;;5071730;28;19932;-68
2023/08/28 06:06:23;;;;;;;;;;;;;;;;;;5072606;28;20303;-68
2023/08/28 06:08:50;;;;;;;;;;;;;;;;;;5075390;28;19925;-68
2023/08/28 06:11:17;;;;;;;;;;;;;;;;;;5074296;28;20409;-67
2023/08/28 06:13:45;;;;;;;;;;;;;;;;;;5073885;28;19970;-67
2023/08/28 06:16:12;;;;;;;;;;;;;;;;;;5059197;28;19924;-67
2023/08/28 06:18:39;;;;;;;;;;;;;;;;;;5071759;28;19940;-67
2023/08/28 06:21:06;;;;;;;;;;;;;;;;;;5074213;28;20468;-67
2023/08/28 06:23:35;;;;;;;;;;;;;;;;;;5074241;28;19932;-67
2023/08/28 06:26:03;;;;;;;;;;;;;;;;;;5074380;28;19932;-65
2023/08/28 06:28:30;;;;;;;;;;;;;;;;;;5068997;28;19947;-66
2023/08/28 06:30:57;;;;;;;;;;;;;;;;;;5062941;28;19970;-67
2023/08/28 06:33:24;;;;;;;;;;;;;;;;;;5068672;28;19924;-66
2023/08/28 06:35:51;;;;;;;;;;;;;;;;;;5070597;28;19926;-66
2023/08/28 06:38:18;;;;;;;;;;;;;;;;;;5074131;28;19985;-67
2023/08/28 06:40:45;;;;;;;;;;;;;;;;;;5069868;28;19924;-67
2023/08/28 06:43:12;;;;;;;;;;;;;;;;;;5072669;28;19947;-67
2023/08/28 06:45:39;;;;;;;;;;;;;;;;;;5074078;28;19924;-66
2023/08/28 06:48:06;;;;;;;;;;;;;;;;;;5071337;28;19929;-67
2023/08/28 06:50:34;;;;;;;;;;;;;;;;;;5066246;28;19983;-66
2023/08/28 06:53:01;;;;;;;;;;;;;;;;;;5070937;28;20426;-66
2023/08/28 06:55:28;;;;;;;;;;;;;;;;;;5068580;28;19925;-66
2023/08/28 06:57:55;;;;;;;;;;;;;;;;;;5073736;28;19924;-66
2023/08/28 07:00:25;;;;;;;;;;;;;;;;;;5071284;28;19928;-68
2023/08/28 07:02:52;;;;;;;;;;;;;;;;;;5069475;28;19970;-66
2023/08/28 07:05:19;;;;;;;;;;;;;;;;;;5070737;28;20366;-66
2023/08/28 07:07:46;;;;;;;;;;;;;;;;;;5070282;28;19982;-67
2023/08/28 07:10:13;;;;;;;;;;;;;;;;;;5073899;28;20394;-66
2023/08/28 07:12:40;;;;;;;;;;;;;;;;;;5071095;28;20814;-67
2023/08/28 07:15:07;;;;;;;;;;;;;;;;;;5068298;28;19958;-67
2023/08/28 07:17:34;;;;;;;;;;;;;;;;;;5070253;28;20057;-66
2023/08/28 07:20:02;;;;;;;;;;;;;;;;;;5065856;28;19932;-66
2023/08/28 07:22:29;;;;;;;;;;;;;;;;;;5067422;28;20023;-67
2023/08/28 07:24:56;;;;;;;;;;;;;;;;;;5072569;28;19928;-66
2023/08/28 07:27:23;;;;;;;;;;;;;;;;;;5070687;28;19924;-67
2023/08/28 07:29:50;;;;;;;;;;;;;;;;;;5062180;28;20380;-67
2023/08/28 07:32:17;;;;;;;;;;;;;;;;;;5064727;28;19974;-67
2023/08/28 07:34:44;;;;;;;;;;;;;;;;;;5066977;28;20358;-67
2023/08/28 07:37:11;;;;;;;;;;;;;;;;;;5057903;28;19925;-67
2023/08/28 07:39:38;;;;;;;;;;;;;;;;;;5062542;28;19925;-67
2023/08/28 07:42:05;;;;;;;;;;;;;;;;;;5061233;28;20092;-67
2023/08/28 07:44:32;;;;;;;;;;;;;;;;;;5066158;28;19924;-67
2023/08/28 07:46:59;;;;;;;;;;;;;;;;;;5064390;28;20349;-68
2023/08/28 07:49:27;;;;;;;;;;;;;;;;;;5064605;28;19974;-68
2023/08/28 07:51:54;;;;;;;;;;;;;;;;;;5068916;28;19970;-68
2023/08/28 07:54:21;;;;;;;;;;;;;;;;;;5069291;28;19929;-69
2023/08/28 07:56:48;;;;;;;;;;;;;;;;;;5064062;28;19954;-69
2023/08/28 07:59:15;;;;;;;;;;;;;;;;;;5069096;28;19932;-69
2023/08/28 08:01:42;;;;;;;;;;;;;;;;;;5072320;28;19925;-69
2023/08/28 08:04:09;;;;;;;;;;;;;;;;;;5065260;28;19924;-68
2023/08/28 08:06:36;;;;;;;;;;;;;;;;;;5060882;28;19985;-69
2023/08/28 08:09:03;;;;;;;;;;;;;;;;;;5069348;28;20368;-68
2023/08/28 08:11:30;;;;;;;;;;;;;;;;;;5066776;28;20090;-68
2023/08/28 08:13:57;;;;;;;;;;;;;;;;;;5066289;28;19935;-68
2023/08/28 08:16:24;;;;;;;;;;;;;;;;;;5069113;28;20004;-69
2023/08/28 08:18:51;;;;;;;;;;;;;;;;;;5071063;28;19924;-69
2023/08/28 08:21:18;;;;;;;;;;;;;;;;;;5070509;28;19925;-69
2023/08/28 08:23:45;;;;;;;;;;;;;;;;;;5069712;28;20009;-68
2023/08/28 08:26:12;;;;;;;;;;;;;;;;;;5070235;28;19925;-67
2023/08/28 08:28:40;;;;;;;;;;;;;;;;;;5069763;28;20005;-70
2023/08/28 08:31:07;;;;;;;;;;;;;;;;;;5070344;28;19971;-69
2023/08/28 08:33:34;;;;;;;;;;;;;;;;;;5057268;28;19983;-68
2023/08/28 08:36:01;;;;;;;;;;;;;;;;;;5070322;28;19972;-68
2023/08/28 08:38:28;;;;;;;;;;;;;;;;;;5067109;28;19939;-69
2023/08/28 08:40:55;;;;;;;;;;;;;;;;;;5060821;28;19997;-69
2023/08/28 08:43:22;;;;;;;;;;;;;;;;;;5067357;28;20007;-68
2023/08/28 08:45:49;;;;;;;;;;;;;;;;;;5061121;28;19933;-69
2023/08/28 08:48:16;;;;;;;;;;;;;;;;;;5071352;28;19931;-68
2023/08/28 08:50:43;;;;;;;;;;;;;;;;;;5067369;28;19924;-68
2023/08/28 08:53:10;;;;;;;;;;;;;;;;;;5067964;28;19955;-67
2023/08/28 08:55:37;;;;;;;;;;;;;;;;;;5065517;28;19951;-67
2023/08/28 08:58:05;;;;;;;;;;;;;;;;;;5065130;28;20361;-67
2023/08/28 09:00:32;;;;;;;;;;;;;;;;;;5061856;28;19987;-69
2023/08/28 09:02:59;;;;;;;;;;;;;;;;;;5070670;28;19983;-69
2023/08/28 09:05:26;;;;;;;;;;;;;;;;;;5069967;28;20000;-69
2023/08/28 09:07:53;;;;;;;;;;;;;;;;;;5068757;28;19950;-68
2023/08/28 09:10:20;;;;;;;;;;;;;;;;;;5067162;28;19980;-68
2023/08/28 09:12:49;;;;;;;;;;;;;;;;;;5066988;28;19971;-68
2023/08/28 09:15:16;;;;;;;;;;;;;;;;;;5069912;28;19924;-68
2023/08/28 09:17:43;;;;;;;;;;;;;;;;;;5069217;28;19924;-70
2023/08/28 09:20:13;;;;;;;;;;;;;;;;;;5067560;28;20441;-68
2023/08/28 09:22:40;;;;;;;;;;;;;;;;;;5066822;28;19925;-70
2023/08/28 09:25:07;;;;;;;;;;;;;;;;;;5070951;28;19928;-69
2023/08/28 09:27:34;;;;;;;;;;;;;;;;;;5068873;28;19932;-69
2023/08/28 09:30:01;;;;;;;;;;;;;;;;;;5070454;28;20008;-70
2023/08/28 09:32:28;;;;;;;;;;;;;;;;;;5071233;28;19951;-70
2023/08/28 09:34:55;;;;;;;;;;;;;;;;;;5069464;28;19990;-70
2023/08/28 09:37:22;;;;;;;;;;;;;;;;;;5066613;28;19929;-69
2023/08/28 09:39:49;;;;;;;;;;;;;;;;;;5068079;28;19998;-69
2023/08/28 09:42:17;;;;;;;;;;;;;;;;;;5068323;28;19943;-69
2023/08/28 09:44:44;;;;;;;;;;;;;;;;;;5065906;28;19925;-71
2023/08/28 09:47:11;;;;;;;;;;;;;;;;;;5068200;28;19985;-69
2023/08/28 09:49:38;;;;;;;;;;;;;;;;;;5061763;28;19970;-69
2023/08/28 09:52:05;;;;;;;;;;;;;;;;;;5071198;28;19936;-71
2023/08/28 09:54:32;;;;;;;;;;;;;;;;;;5070547;28;19924;-70
2023/08/28 09:56:59;;;;;;;;;;;;;;;;;;5063938;28;20392;-70
2023/08/28 09:59:26;;;;;;;;;;;;;;;;;;5060382;28;19931;-71
2023/08/28 10:01:53;;;;;;;;;;;;;;;;;;5063866;28;19980;-70
2023/08/28 10:04:20;;;;;;;;;;;;;;;;;;5069811;28;19936;-70
2023/08/28 10:06:49;;;;;;;;;;;;;;;;;;5069298;28;19981;-70
2023/08/28 10:09:18;;;;;;;;;;;;;;;;;;5071179;28;20379;-70
2023/08/28 10:11:45;;;;;;;;;;;;;;;;;;5069378;28;20052;-71
2023/08/28 10:14:12;;;;;;;;;;;;;;;;;;5074756;28;19928;-70
2023/08/28 10:16:40;;;;;;;;;;;;;;;;;;5074194;28;19929;-69
2023/08/28 10:19:07;;;;;;;;;;;;;;;;;;5071015;28;19928;-69
2023/08/28 10:21:34;;;;;;;;;;;;;;;;;;5074690;28;19933;-71
2023/08/28 10:24:01;;;;;;;;;;;;;;;;;;5070728;28;19972;-70
2023/08/28 10:26:29;;;;;;;;;;;;;;;;;;5074237;28;19948;-69
2023/08/28 10:28:56;;;;;;;;;;;;;;;;;;5069364;28;19968;-69
2023/08/28 10:31:23;;;;;;;;;;;;;;;;;;5070473;28;19997;-70
2023/08/28 10:33:50;;;;;;;;;;;;;;;;;;5071732;28;19931;-69
2023/08/28 10:36:17;;;;;;;;;;;;;;;;;;5068005;28;19924;-69
2023/08/28 10:38:44;;;;;;;;;;;;;;;;;;5066188;28;19924;-69
2023/08/28 10:41:11;;;;;;;;;;;;;;;;;;5070561;28;20015;-71
2023/08/28 10:43:38;;;;;;;;;;;;;;;;;;5068761;28;20055;-70
2023/08/28 10:46:05;;;;;;;;;;;;;;;;;;5066433;28;19924;-70
2023/08/28 10:48:32;;;;;;;;;;;;;;;;;;5074420;28;20053;-70
2023/08/28 10:50:59;;;;;;;;;;;;;;;;;;5070884;28;19936;-70
2023/08/28 10:53:27;;;;;;;;;;;;;;;;;;5072049;28;20392;-70
2023/08/28 10:55:54;;;;;;;;;;;;;;;;;;5072242;28;20003;-69
2023/08/28 10:58:21;;;;;;;;;;;;;;;;;;5072397;28;19972;-69
2023/08/28 11:00:48;;;;;;;;;;;;;;;;;;5073809;28;19928;-69
2023/08/28 11:03:17;;;;;;;;;;;;;;;;;;5074061;28;19932;-69
2023/08/28 11:05:44;;;;;;;;;;;;;;;;;;5072364;28;20007;-69
2023/08/28 11:08:11;;;;;;;;;;;;;;;;;;5072963;28;19977;-68
2023/08/28 11:10:39;;;;;;;;;;;;;;;;;;5072523;28;20355;-71
2023/08/28 11:13:06;;;;;;;;;;;;;;;;;;5069516;28;19932;-70
2023/08/28 11:15:33;;;;;;;;;;;;;;;;;;5073675;28;20023;-70
2023/08/28 11:17:59;;;;;;;;;;;;;;;;;;5073484;28;19986;-71
2023/08/28 11:20:26;;;;;;;;;;;;;;;;;;5065984;28;20388;-70
2023/08/28 11:22:53;;;;;;;;;;;;;;;;;;5072115;28;19932;-70
2023/08/28 11:25:20;;;;;;;;;;;;;;;;;;5070074;28;19925;-70
2023/08/28 11:27:48;;;;;;;;;;;;;;;;;;5071323;28;19970;-69
2023/08/28 11:30:15;;;;;;;;;;;;;;;;;;5067909;28;20379;-69
2023/08/28 11:32:42;;;;;;;;;;;;;;;;;;5067747;28;19924;-71
2023/08/28 11:35:09;;;;;;;;;;;;;;;;;;5070349;28;19974;-69
2023/08/28 11:37:36;;;;;;;;;;;;;;;;;;5063822;28;20011;-69
2023/08/28 11:40:05;;;;;;;;;;;;;;;;;;5062952;28;20138;-70
2023/08/28 11:42:32;;;;;;;;;;;;;;;;;;5070020;28;19924;-70
2023/08/28 11:44:59;;;;;;;;;;;;;;;;;;5072991;28;20299;-69
2023/08/28 11:47:26;;;;;;;;;;;;;;;;;;5071898;28;20097;-69
2023/08/28 11:49:53;;;;;;;;;;;;;;;;;;5072850;28;20380;-69
2023/08/28 11:52:20;;;;;;;;;;;;;;;;;;5072176;28;19928;-70
2023/08/28 11:54:47;;;;;;;;;;;;;;;;;;5070461;28;20376;-70
2023/08/28 11:57:14;;;;;;;;;;;;;;;;;;5072065;28;20023;-70
2023/08/28 11:59:41;;;;;;;;;;;;;;;;;;5067443;28;20445;-70
2023/08/28 12:02:08;;;;;;;;;;;;;;;;;;5066207;28;19985;-71
2023/08/28 12:04:36;;;;;;;;;;;;;;;;;;5066209;28;20315;-70
2023/08/28 12:07:05;;;;;;;;;;;;;;;;;;5064117;28;20454;-69
2023/08/28 12:09:32;;;;;;;;;;;;;;;;;;5071038;28;20023;-70
2023/08/28 12:11:59;;;;;;;;;;;;;;;;;;5070716;28;19933;-70
2023/08/28 12:14:26;;;;;;;;;;;;;;;;;;5071760;28;19924;-69
2023/08/28 12:16:53;;;;;;;;;;;;;;;;;;5068680;28;19924;-69
2023/08/28 12:19:20;;;;;;;;;;;;;;;;;;5072010;28;19924;-70
2023/08/28 12:21:47;;;;;;;;;;;;;;;;;;5071675;28;20217;-69
2023/08/28 12:24:14;;;;;;;;;;;;;;;;;;5068131;28;19970;-70
2023/08/28 12:26:41;;;;;;;;;;;;;;;;;;5070576;28;20407;-69
2023/08/28 12:29:08;;;;;;;;;;;;;;;;;;5064344;28;19924;-70
2023/08/28 12:31:35;;;;;;;;;;;;;;;;;;5066288;28;19982;-69
2023/08/28 12:34:02;;;;;;;;;;;;;;;;;;5071852;28;20302;-69
2023/08/28 12:36:29;;;;;;;;;;;;;;;;;;5070904;28;19974;-69
2023/08/28 12:38:56;;;;;;;;;;;;;;;;;;5067109;28;19928;-70
2023/08/28 12:41:23;;;;;;;;;;;;;;;;;;5068937;28;20005;-70
2023/08/28 12:43:50;;;;;;;;;;;;;;;;;;5067020;28;19956;-69
2023/08/28 12:46:17;;;;;;;;;;;;;;;;;;5072263;28;19924;-70
2023/08/28 12:48:44;;;;;;;;;;;;;;;;;;5069363;28;19924;-70
2023/08/28 12:51:11;;;;;;;;;;;;;;;;;;5071649;28;19963;-70
2023/08/28 12:53:38;;;;;;;;;;;;;;;;;;5069526;28;20005;-69
2023/08/28 12:56:05;;;;;;;;;;;;;;;;;;5070948;28;19982;-71
2023/08/28 12:58:32;;;;;;;;;;;;;;;;;;5071436;28;19939;-70
2023/08/28 13:00:59;;;;;;;;;;;;;;;;;;5068732;28;19947;-71
2023/08/28 13:03:26;;;;;;;;;;;;;;;;;;5070607;28;19994;-68
2023/08/28 13:05:53;;;;;;;;;;;;;;;;;;5069160;28;19993;-71
2023/08/28 13:08:20;;;;;;;;;;;;;;;;;;5071336;28;19924;-69
2023/08/28 13:10:48;;;;;;;;;;;;;;;;;;5069203;28;19932;-70
2023/08/28 13:13:15;;;;;;;;;;;;;;;;;;5068000;28;19971;-70
2023/08/28 13:15:42;;;;;;;;;;;;;;;;;;5071330;28;19978;-70
2023/08/28 13:18:09;;;;;;;;;;;;;;;;;;5071594;28;19924;-69
2023/08/28 13:20:37;;;;;;;;;;;;;;;;;;5069475;28;20019;-72
2023/08/28 13:23:04;;;;;;;;;;;;;;;;;;5066498;28;20303;-68
2023/08/28 13:25:31;;;;;;;;;;;;;;;;;;5068032;28;19978;-69
2023/08/28 13:27:58;;;;;;;;;;;;;;;;;;5070632;28;19925;-69
2023/08/28 13:30:25;;;;;;;;;;;;;;;;;;5064414;28;19971;-69
2023/08/28 13:32:52;;;;;;;;;;;;;;;;;;5064094;28;19925;-69
2023/08/28 13:35:19;;;;;;;;;;;;;;;;;;5065110;28;19925;-69
2023/08/28 13:37:46;;;;;;;;;;;;;;;;;;5071421;28;19985;-68
2023/08/28 13:40:13;;;;;;;;;;;;;;;;;;5071059;28;19932;-69
2023/08/28 13:42:40;;;;;;;;;;;;;;;;;;5070301;28;19931;-69
2023/08/28 13:45:07;;;;;;;;;;;;;;;;;;5068568;28;19925;-71
2023/08/28 13:47:34;;;;;;;;;;;;;;;;;;5069966;28;20384;-70
2023/08/28 13:50:03;;;;;;;;;;;;;;;;;;5071043;28;20348;-70
2023/08/28 13:52:30;;;;;;;;;;;;;;;;;;5070551;28;19928;-71
2023/08/28 13:55:04;;;;;;;;;;;;;;;;;;5073222;28;19924;-69
2023/08/28 13:57:31;;;;;;;;;;;;;;;;;;5071026;28;20388;-70
2023/08/28 13:59:59;;;;;;;;;;;;;;;;;;5070716;28;19970;-69
2023/08/28 14:02:26;;;;;;;;;;;;;;;;;;5070895;28;19924;-70
2023/08/28 14:04:53;;;;;;;;;;;;;;;;;;5072773;28;19925;-71
2023/08/28 14:07:20;;;;;;;;;;;;;;;;;;5071560;28;19932;-71
2023/08/28 14:09:47;;;;;;;;;;;;;;;;;;5073313;28;19955;-71
2023/08/28 14:12:14;;;;;;;;;;;;;;;;;;5073498;28;19924;-71
2023/08/28 14:14:41;;;;;;;;;;;;;;;;;;5074356;28;19970;-71
2023/08/28 14:17:08;;;;;;;;;;;;;;;;;;5067915;28;19970;-69
2023/08/28 14:19:35;;;;;;;;;;;;;;;;;;5074208;28;20455;-70
2023/08/28 14:22:02;;;;;;;;;;;;;;;;;;5070739;28;19990;-70
2023/08/28 14:24:30;;;;;;;;;;;;;;;;;;5072446;28;19925;-70
2023/08/28 14:26:57;;;;;;;;;;;;;;;;;;5073445;28;20306;-71
2023/08/28 14:29:25;;;;;;;;;;;;;;;;;;5073582;28;19924;-69
2023/08/28 14:31:52;;;;;;;;;;;;;;;;;;5070480;28;19979;-69
2023/08/28 14:34:19;;;;;;;;;;;;;;;;;;5068787;28;19977;-69
2023/08/28 14:36:46;;;;;;;;;;;;;;;;;;5066838;28;19954;-69
2023/08/28 14:39:13;;;;;;;;;;;;;;;;;;5069924;28;19924;-70
2023/08/28 14:41:40;;;;;;;;;;;;;;;;;;5071843;28;19929;-70
2023/08/28 14:44:07;;;;;;;;;;;;;;;;;;5073461;28;19924;-70
2023/08/28 14:46:35;;;;;;;;;;;;;;;;;;5074147;28;20375;-70
2023/08/28 14:49:03;;;;;;;;;;;;;;;;;;5071291;28;20669;-70
2023/08/28 14:51:30;;;;;;;;;;;;;;;;;;5073246;28;20449;-69
2023/08/28 14:53:58;;;;;;;;;;;;;;;;;;5074930;28;19924;-70
2023/08/28 14:56:25;;;;;;;;;;;;;;;;;;5062416;28;19956;-69
2023/08/28 14:58:52;;;;;;;;;;;;;;;;;;5066365;28;20015;-70
2023/08/28 15:01:19;;;;;;;;;;;;;;;;;;5069846;28;19932;-72
2023/08/28 15:03:47;;;;;;;;;;;;;;;;;;5071088;28;19924;-70
2023/08/28 15:06:15;;;;;;;;;;;;;;;;;;5072712;28;19978;-70
2023/08/28 15:08:42;;;;;;;;;;;;;;;;;;5072460;28;19924;-69
2023/08/28 15:11:09;;;;;;;;;;;;;;;;;;5072596;28;19932;-68
2023/08/28 15:13:36;;;;;;;;;;;;;;;;;;5072760;28;19924;-69
2023/08/28 15:16:03;;;;;;;;;;;;;;;;;;5069657;28;20375;-69
2023/08/28 15:18:30;;;;;;;;;;;;;;;;;;5055552;28;19978;-68
2023/08/28 15:20:57;;;;;;;;;;;;;;;;;;5072625;28;19986;-69
2023/08/28 15:23:24;;;;;;;;;;;;;;;;;;5071677;28;19925;-68
2023/08/28 15:25:51;;;;;;;;;;;;;;;;;;5069371;28;19932;-69
2023/08/28 15:28:18;;;;;;;;;;;;;;;;;;5069872;28;19925;-69
2023/08/28 15:30:45;;;;;;;;;;;;;;;;;;5073375;28;19933;-69
2023/08/28 15:33:13;;;;;;;;;;;;;;;;;;5072970;28;20519;-69
2023/08/28 15:35:40;;;;;;;;;;;;;;;;;;5071846;28;19924;-69
2023/08/28 15:38:07;;;;;;;;;;;;;;;;;;5070750;28;19932;-70
2023/08/28 15:40:34;;;;;;;;;;;;;;;;;;5072193;28;19952;-70
2023/08/28 15:43:01;;;;;;;;;;;;;;;;;;5071577;28;20003;-69
2023/08/28 15:45:28;;;;;;;;;;;;;;;;;;5071440;28;19925;-69
2023/08/28 15:47:55;;;;;;;;;;;;;;;;;;5072794;28;19975;-70
2023/08/28 15:50:22;;;;;;;;;;;;;;;;;;5066762;28;20322;-70
2023/08/28 15:52:49;;;;;;;;;;;;;;;;;;5071570;28;19978;-70
2023/08/28 15:55:16;;;;;;;;;;;;;;;;;;5072063;28;19963;-69
2023/08/28 15:57:44;;;;;;;;;;;;;;;;;;5070688;28;19929;-70
2023/08/28 16:00:11;;;;;;;;;;;;;;;;;;5071545;28;20310;-70
2023/08/28 16:02:38;;;;;;;;;;;;;;;;;;5070930;28;19931;-69
2023/08/28 16:05:06;;;;;;;;;;;;;;;;;;5070848;28;19928;-70
2023/08/28 16:07:33;;;;;;;;;;;;;;;;;;5070052;28;19928;-69
2023/08/28 16:10:00;;;;;;;;;;;;;;;;;;5069275;28;19931;-68
2023/08/28 16:12:27;;;;;;;;;;;;;;;;;;5065383;28;20020;-68
2023/08/28 16:14:54;;;;;;;;;;;;;;;;;;5069752;28;19993;-69
2023/08/28 16:17:21;;;;;;;;;;;;;;;;;;5068722;28;20451;-68
2023/08/28 16:19:48;;;;;;;;;;;;;;;;;;5071173;28;19924;-68
2023/08/28 16:22:15;;;;;;;;;;;;;;;;;;5072226;28;19943;-68
2023/08/28 16:24:42;;;;;;;;;;;;;;;;;;5071102;28;20420;-69
2023/08/28 16:27:09;;;;;;;;;;;;;;;;;;5070842;28;19931;-68
2023/08/28 16:29:36;;;;;;;;;;;;;;;;;;5070986;28;20285;-69
2023/08/28 16:32:03;;;;;;;;;;;;;;;;;;5069632;28;19925;-69
2023/08/28 16:34:30;;;;;;;;;;;;;;;;;;5068900;28;19977;-69
2023/08/28 16:36:57;;;;;;;;;;;;;;;;;;5069817;28;19982;-68
2023/08/28 16:39:24;;;;;;;;;;;;;;;;;;5071697;28;19986;-69
2023/08/28 16:41:52;;;;;;;;;;;;;;;;;;5069677;28;19924;-67
2023/08/28 16:44:19;;;;;;;;;;;;;;;;;;5062581;28;19929;-66